createdAt,value
2023-05-23T00:00:18.825Z,60.00
2023-05-23T00:02:47.144Z,60.10
2023-05-23T00:05:15.761Z,60.30
2023-05-23T00:07:43.641Z,60.40
2023-05-23T00:10:11.491Z,60.00
2023-05-23T00:12:40.318Z,60.10
2023-05-23T00:15:08.435Z,60.10
2023-05-23T00:17:37.892Z,60.10
2023-05-23T00:20:05.089Z,60.00
2023-05-23T00:22:31.859Z,60.10
2023-05-23T00:24:59.540Z,60.00
2023-05-23T00:27:26.152Z,60.10
2023-05-23T00:29:52.762Z,60.10
2023-05-23T00:32:19.439Z,60.10
2023-05-23T00:34:46.748Z,60.80
2023-05-23T00:37:13.416Z,60.30
2023-05-23T00:39:39.991Z,60.10
2023-05-23T00:42:06.710Z,60.10
2023-05-23T00:44:33.321Z,60.20
2023-05-23T00:47:00.359Z,60.10
2023-05-23T00:49:28.225Z,60.10
2023-05-23T00:51:55.021Z,60.10
2023-05-23T00:54:27.234Z,59.90
2023-05-23T00:56:54.413Z,59.90
2023-05-23T00:59:21.603Z,59.90
2023-05-23T01:01:48.710Z,60.00
2023-05-23T01:04:16.808Z,60.10
2023-05-23T01:06:47.089Z,60.10
2023-05-23T01:09:15.250Z,60.50
2023-05-23T01:11:53.988Z,60.20
2023-05-23T01:14:35.259Z,60.00
2023-05-23T01:17:06.111Z,59.90
2023-05-23T01:19:51.959Z,60.10
2023-05-23T01:22:23.522Z,60.00
2023-05-23T01:25:04.411Z,59.90
2023-05-23T01:27:43.022Z,60.00
2023-05-23T01:30:10.464Z,60.00
2023-05-23T01:32:37.387Z,60.00
2023-05-23T01:35:04.332Z,60.30
2023-05-23T01:37:30.968Z,60.10
2023-05-23T01:39:57.558Z,59.90
2023-05-23T01:42:24.238Z,60.20
2023-05-23T01:44:51.102Z,60.40
2023-05-23T01:47:18.083Z,60.50
2023-05-23T01:49:45.148Z,60.20
2023-05-23T01:52:11.975Z,60.30
2023-05-23T01:54:39.199Z,60.40
2023-05-23T01:57:06.126Z,60.10
2023-05-23T01:59:33.601Z,59.90
2023-05-23T02:02:00.336Z,59.60
2023-05-23T02:04:28.132Z,59.60
2023-05-23T02:06:54.731Z,59.40
2023-05-23T02:09:21.360Z,59.20
2023-05-23T02:11:47.983Z,59.20
2023-05-23T02:14:14.638Z,59.30
2023-05-23T02:16:41.349Z,59.20
2023-05-23T02:19:08.125Z,59.30
2023-05-23T02:21:35.521Z,59.30
2023-05-23T02:24:02.417Z,59.30
2023-05-23T02:26:29.085Z,59.50
2023-05-23T02:28:55.756Z,59.40
2023-05-23T02:31:22.461Z,59.40
2023-05-23T02:33:49.400Z,59.40
2023-05-23T02:36:16.037Z,59.50
2023-05-23T02:38:42.697Z,59.50
2023-05-23T02:41:09.359Z,59.50
2023-05-23T02:43:36.017Z,59.50
2023-05-23T02:46:02.693Z,59.40
2023-05-23T02:48:29.309Z,59.50
2023-05-23T02:50:56.314Z,59.50
2023-05-23T02:53:22.987Z,59.60
2023-05-23T02:55:49.574Z,59.70
2023-05-23T02:58:16.335Z,59.60
2023-05-23T03:00:44.057Z,59.70
2023-05-23T03:03:11.378Z,59.60
2023-05-23T03:05:38.143Z,59.70
2023-05-23T03:08:05.449Z,59.80
2023-05-23T03:10:32.071Z,59.80
2023-05-23T03:12:58.752Z,59.70
2023-05-23T03:15:25.503Z,59.80
2023-05-23T03:17:52.409Z,59.90
2023-05-23T03:20:19.229Z,59.90
2023-05-23T03:22:46.066Z,59.90
2023-05-23T03:25:15.339Z,60.00
2023-05-23T03:27:42.069Z,60.00
2023-05-23T03:30:09.190Z,60.00
2023-05-23T03:32:36.139Z,60.10
2023-05-23T03:35:02.875Z,60.20
2023-05-23T03:37:29.540Z,60.20
2023-05-23T03:39:56.165Z,60.40
2023-05-23T03:42:22.798Z,60.20
2023-05-23T03:44:49.431Z,60.30
2023-05-23T03:47:16.053Z,60.10
2023-05-23T03:49:42.767Z,60.00
2023-05-23T03:52:09.384Z,60.00
2023-05-23T03:54:36.021Z,60.00
2023-05-23T03:57:02.933Z,60.00
2023-05-23T03:59:29.576Z,60.10
2023-05-23T04:01:58.818Z,60.20
2023-05-23T04:04:26.216Z,60.50
2023-05-23T04:06:52.991Z,60.10
2023-05-23T04:09:19.647Z,60.30
2023-05-23T04:11:47.409Z,60.20
2023-05-23T04:14:14.197Z,60.70
2023-05-23T04:16:42.637Z,60.20
2023-05-23T04:19:09.398Z,60.40
2023-05-23T04:21:36.060Z,60.50
2023-05-23T04:24:03.155Z,60.80
2023-05-23T04:26:29.780Z,60.70
2023-05-23T04:28:56.465Z,60.70
2023-05-23T04:31:23.314Z,60.90
2023-05-23T04:33:49.906Z,61.00
2023-05-23T04:36:16.794Z,61.00
2023-05-23T04:38:43.396Z,61.10
2023-05-23T04:41:13.115Z,61.40
2023-05-23T04:43:42.855Z,61.30
2023-05-23T04:46:10.148Z,61.70
2023-05-23T04:48:38.576Z,61.10
2023-05-23T04:51:08.585Z,61.10
2023-05-23T04:53:36.888Z,60.90
2023-05-23T04:56:03.686Z,61.20
2023-05-23T04:58:31.788Z,61.20
2023-05-23T05:00:58.841Z,61.30
2023-05-23T05:03:26.362Z,61.30
2023-05-23T05:05:53.671Z,61.40
2023-05-23T05:08:20.346Z,61.60
2023-05-23T05:10:47.008Z,61.50
2023-05-23T05:13:13.615Z,61.60
2023-05-23T05:15:40.898Z,61.80
2023-05-23T05:18:07.572Z,61.80
2023-05-23T05:20:34.308Z,61.80
2023-05-23T05:23:01.280Z,61.90
2023-05-23T05:25:31.799Z,62.10
2023-05-23T05:28:02.153Z,61.70
2023-05-23T05:30:30.559Z,61.90
2023-05-23T05:32:58.224Z,62.00
2023-05-23T05:35:24.934Z,61.70
2023-05-23T05:37:51.570Z,61.80
2023-05-23T05:40:18.284Z,61.70
2023-05-23T05:42:44.887Z,61.70
2023-05-23T05:45:11.583Z,62.20
2023-05-23T05:47:38.864Z,61.80
2023-05-23T05:50:06.833Z,62.00
2023-05-23T05:52:34.714Z,62.00
2023-05-23T05:55:01.451Z,62.20
2023-05-23T05:57:28.125Z,62.00
2023-05-23T05:59:54.700Z,61.80
2023-05-23T06:02:21.441Z,62.10
2023-05-23T06:04:48.200Z,62.30
2023-05-23T06:07:14.849Z,62.50
2023-05-23T06:09:41.568Z,62.30
2023-05-23T06:12:08.375Z,62.20
2023-05-23T06:14:35.059Z,62.20
2023-05-23T06:17:03.075Z,62.30
2023-05-23T06:19:29.767Z,62.50
2023-05-23T06:21:56.372Z,62.50
2023-05-23T06:24:22.983Z,62.30
2023-05-23T06:26:49.710Z,62.10
2023-05-23T06:29:16.471Z,62.60
2023-05-23T06:31:43.176Z,62.50
2023-05-23T06:34:09.861Z,62.60
2023-05-23T06:36:36.621Z,62.70
2023-05-23T06:39:03.445Z,62.70
2023-05-23T06:41:30.101Z,62.50
2023-05-23T06:43:56.730Z,62.70
2023-05-23T06:46:23.601Z,62.80
2023-05-23T06:48:59.268Z,62.60
2023-05-23T06:51:33.706Z,62.80
2023-05-23T06:54:00.566Z,63.20
2023-05-23T06:56:27.570Z,63.20
2023-05-23T06:58:54.241Z,63.60
2023-05-23T07:01:21.131Z,63.40
2023-05-23T07:03:47.801Z,63.80
2023-05-23T07:06:14.551Z,63.30
2023-05-23T07:08:41.275Z,62.80
2023-05-23T07:11:07.932Z,63.10
2023-05-23T07:13:34.990Z,64.00
2023-05-23T07:16:01.665Z,63.30
2023-05-23T07:18:28.687Z,63.20
2023-05-23T07:20:55.443Z,63.60
2023-05-23T07:23:23.007Z,64.00
2023-05-23T07:26:02.101Z,63.30
2023-05-23T07:28:30.082Z,63.10
2023-05-23T07:30:58.289Z,63.00
2023-05-23T07:33:25.154Z,63.20
2023-05-23T07:35:51.893Z,63.10
2023-05-23T07:38:18.561Z,63.30
2023-05-23T07:40:55.316Z,63.30
2023-05-23T07:43:29.981Z,63.40
2023-05-23T07:45:56.640Z,63.30
2023-05-23T07:48:23.244Z,63.40
2023-05-23T07:50:50.167Z,63.40
2023-05-23T07:53:17.687Z,63.60
2023-05-23T07:55:44.375Z,63.50
2023-05-23T07:58:11.020Z,63.60
2023-05-23T08:00:39.313Z,63.50
2023-05-23T08:03:06.187Z,63.60
2023-05-23T08:05:32.984Z,63.50
2023-05-23T08:07:59.670Z,63.50
2023-05-23T08:10:28.356Z,63.80
2023-05-23T08:12:55.001Z,63.60
2023-05-23T08:15:23.350Z,63.80
2023-05-23T08:17:50.324Z,63.70
2023-05-23T08:20:17.233Z,63.80
2023-05-23T08:22:44.042Z,63.90
2023-05-23T08:25:10.835Z,64.20
2023-05-23T08:27:37.581Z,64.30
2023-05-23T08:30:04.877Z,64.30
2023-05-23T08:32:31.603Z,64.30
2023-05-23T08:34:58.446Z,64.00
2023-05-23T08:37:25.182Z,63.90
2023-05-23T08:39:52.236Z,63.90
2023-05-23T08:42:19.219Z,63.80
2023-05-23T08:44:45.997Z,63.90
2023-05-23T08:47:16.277Z,63.90
2023-05-23T08:49:44.096Z,63.90
2023-05-23T08:52:12.128Z,63.90
2023-05-23T08:54:38.842Z,64.20
2023-05-23T08:57:05.689Z,63.90
2023-05-23T08:59:33.593Z,64.00
2023-05-23T09:02:00.785Z,64.00
2023-05-23T09:04:29.158Z,64.00
2023-05-23T09:06:56.864Z,64.00
2023-05-23T09:09:23.510Z,64.20
2023-05-23T09:11:51.300Z,64.10
2023-05-23T09:14:18.232Z,64.30
2023-05-23T09:16:47.833Z,64.30
2023-05-23T09:19:14.841Z,64.30
2023-05-23T09:21:44.874Z,64.40
2023-05-23T09:24:11.923Z,64.20
2023-05-23T09:26:38.741Z,64.30
2023-05-23T09:29:06.451Z,64.40
2023-05-23T09:31:33.105Z,64.80
2023-05-23T09:34:02.765Z,64.60
2023-05-23T09:36:35.015Z,64.60
2023-05-23T09:39:05.675Z,64.70
2023-05-23T09:41:35.525Z,64.70
2023-05-23T09:44:06.265Z,64.70
2023-05-23T09:46:35.459Z,64.70
2023-05-23T09:49:02.492Z,65.00
2023-05-23T09:51:29.268Z,65.00
2023-05-23T09:53:57.093Z,64.90
2023-05-23T09:56:24.609Z,65.00
2023-05-23T09:58:51.546Z,64.90
2023-05-23T10:01:18.298Z,65.20
2023-05-23T10:03:48.064Z,65.80
2023-05-23T10:06:16.839Z,65.40
2023-05-23T10:08:44.578Z,65.40
2023-05-23T10:11:14.540Z,65.50
2023-05-23T10:13:45.334Z,65.50
2023-05-23T10:16:16.565Z,65.50
2023-05-23T10:18:44.382Z,65.40
2023-05-23T10:21:19.026Z,65.70
2023-05-23T10:23:47.534Z,65.70
2023-05-23T10:26:14.624Z,65.80
2023-05-23T10:28:41.956Z,65.70
2023-05-23T10:31:09.081Z,66.10
2023-05-23T10:33:38.883Z,65.60
2023-05-23T10:36:09.907Z,65.90
2023-05-23T10:38:38.749Z,66.20
2023-05-23T10:41:18.712Z,66.00
2023-05-23T10:43:52.659Z,66.00
2023-05-23T10:46:22.809Z,66.10
2023-05-23T10:48:54.330Z,66.20
2023-05-23T10:51:22.057Z,66.10
2023-05-23T10:53:53.549Z,66.40
2023-05-23T10:56:23.740Z,66.30
2023-05-23T10:58:54.926Z,66.40
2023-05-23T11:01:21.910Z,67.20
2023-05-23T11:03:50.449Z,66.40
2023-05-23T11:06:34.230Z,66.60
2023-05-23T11:09:09.828Z,66.60
2023-05-23T11:11:55.493Z,66.60
2023-05-23T11:14:31.810Z,66.80
2023-05-23T11:16:58.673Z,66.80
2023-05-23T11:19:28.088Z,66.70
2023-05-23T11:21:55.192Z,66.80
2023-05-23T11:24:22.080Z,66.80
2023-05-23T11:27:00.016Z,67.00
2023-05-23T11:29:27.389Z,67.10
2023-05-23T11:31:54.233Z,66.90
2023-05-23T11:34:21.790Z,66.90
2023-05-23T11:36:52.875Z,67.00
2023-05-23T11:39:20.914Z,66.80
2023-05-23T11:41:58.951Z,66.80
2023-05-23T11:44:25.842Z,67.00
2023-05-23T11:46:59.502Z,66.50
2023-05-23T11:49:27.860Z,66.80
2023-05-23T11:51:54.512Z,66.90
2023-05-23T11:54:25.405Z,66.40
2023-05-23T11:56:52.731Z,66.20
2023-05-23T11:59:19.363Z,66.30
2023-05-23T12:01:46.164Z,66.90
2023-05-23T12:04:13.452Z,66.60
2023-05-23T12:06:44.405Z,66.40
2023-05-23T12:09:11.666Z,66.50
2023-05-23T12:11:40.120Z,66.50
2023-05-23T12:14:07.118Z,66.90
2023-05-23T12:16:35.173Z,67.10
2023-05-23T12:19:03.203Z,66.80
2023-05-23T12:21:43.434Z,66.30
2023-05-23T12:24:17.662Z,66.60
2023-05-23T12:26:48.387Z,66.40
2023-05-23T12:29:15.086Z,66.40
2023-05-23T12:31:41.842Z,66.60
2023-05-23T12:34:08.558Z,66.70
2023-05-23T12:36:47.921Z,66.80
2023-05-23T12:39:15.775Z,67.20
2023-05-23T12:41:43.610Z,67.10
2023-05-23T12:44:10.726Z,66.90
2023-05-23T12:46:37.399Z,67.80
2023-05-23T12:49:04.033Z,67.00
2023-05-23T12:51:30.977Z,67.60
2023-05-23T12:53:58.116Z,67.50
2023-05-23T12:56:24.719Z,68.40
2023-05-23T12:58:52.147Z,67.20
2023-05-23T13:01:18.932Z,67.80
2023-05-23T13:03:45.788Z,68.20
2023-05-23T13:06:12.500Z,67.30
2023-05-23T13:08:39.159Z,67.60
2023-05-23T13:11:06.326Z,67.60
2023-05-23T13:13:33.748Z,67.70
2023-05-23T13:16:00.815Z,67.50
2023-05-23T13:18:27.502Z,67.40
2023-05-23T13:20:54.147Z,67.50
2023-05-23T13:23:20.831Z,68.10
2023-05-23T13:25:47.557Z,67.20
2023-05-23T13:28:14.198Z,67.80
2023-05-23T13:30:41.524Z,67.40
2023-05-23T13:33:09.017Z,67.20
2023-05-23T13:35:35.681Z,67.40
2023-05-23T13:38:04.299Z,67.40
2023-05-23T13:40:31.077Z,67.40
2023-05-23T13:42:57.697Z,67.80
2023-05-23T13:45:24.980Z,68.20
2023-05-23T13:47:51.693Z,67.90
2023-05-23T13:50:18.689Z,69.10
2023-05-23T13:52:49.112Z,68.10
2023-05-23T13:55:16.616Z,68.30
2023-05-23T13:57:43.253Z,68.20
2023-05-23T14:00:10.155Z,68.00
2023-05-23T14:02:36.891Z,67.80
2023-05-23T14:05:04.285Z,68.00
2023-05-23T14:07:31.303Z,67.80
2023-05-23T14:09:58.324Z,67.60
2023-05-23T14:12:24.955Z,67.60
2023-05-23T14:14:51.678Z,67.70
2023-05-23T14:17:18.523Z,68.40
2023-05-23T14:19:46.117Z,69.00
2023-05-23T14:22:12.942Z,68.80
2023-05-23T14:24:39.602Z,67.80
2023-05-23T14:27:08.066Z,68.00
2023-05-23T14:29:36.242Z,68.00
2023-05-23T14:32:04.123Z,68.00
2023-05-23T14:34:30.862Z,68.00
2023-05-23T14:36:57.493Z,67.80
2023-05-23T14:39:25.510Z,67.70
2023-05-23T14:41:52.272Z,67.60
2023-05-23T14:44:18.991Z,67.50
2023-05-23T14:46:49.082Z,67.40
2023-05-23T14:49:17.262Z,67.20
2023-05-23T14:51:49.007Z,67.30
2023-05-23T14:54:17.021Z,67.40
2023-05-23T14:56:43.804Z,67.30
2023-05-23T14:59:11.014Z,67.30
2023-05-23T15:01:40.207Z,67.20
2023-05-23T15:04:09.067Z,67.20
2023-05-23T15:06:36.353Z,67.30
2023-05-23T15:09:03.144Z,67.30
2023-05-23T15:11:30.078Z,67.50
2023-05-23T15:13:56.991Z,67.30
2023-05-23T15:16:23.767Z,67.30
2023-05-23T15:18:50.518Z,67.70
2023-05-23T15:21:17.197Z,68.00
2023-05-23T15:23:43.884Z,67.60
2023-05-23T15:26:11.318Z,67.40
2023-05-23T15:28:37.920Z,67.50
2023-05-23T15:31:04.597Z,67.50
2023-05-23T15:33:32.060Z,67.80
2023-05-23T15:35:59.431Z,67.10
2023-05-23T15:38:26.528Z,67.30
2023-05-23T15:40:54.703Z,67.70
2023-05-23T15:43:21.583Z,67.70
2023-05-23T15:45:49.724Z,67.50
2023-05-23T15:48:16.603Z,67.50
2023-05-23T15:50:44.077Z,67.50
2023-05-23T15:53:10.896Z,67.40
2023-05-23T15:55:39.219Z,67.60
2023-05-23T15:58:09.497Z,67.40
2023-05-23T16:00:36.176Z,67.40
2023-05-23T16:03:03.196Z,67.50
2023-05-23T16:05:30.105Z,68.10
2023-05-23T16:07:56.900Z,67.50
2023-05-23T16:10:24.538Z,68.20
2023-05-23T16:12:51.463Z,67.60
2023-05-23T16:15:18.050Z,67.90
2023-05-23T16:17:44.712Z,67.80
2023-05-23T16:20:11.501Z,67.40
2023-05-23T16:22:38.183Z,67.00
2023-05-23T16:25:07.838Z,67.20
2023-05-23T16:27:34.497Z,66.90
2023-05-23T16:30:01.364Z,67.10
2023-05-23T16:32:31.040Z,67.00
2023-05-23T16:34:57.704Z,67.30
2023-05-23T16:37:24.347Z,67.20
2023-05-23T16:39:50.939Z,67.00
2023-05-23T16:42:17.887Z,67.00
2023-05-23T16:44:45.076Z,66.90
2023-05-23T16:47:11.813Z,67.10
2023-05-23T16:49:38.450Z,66.80
2023-05-23T16:52:05.089Z,67.00
2023-05-23T16:54:31.792Z,66.90
2023-05-23T16:57:01.542Z,66.90
2023-05-23T16:59:30.063Z,67.00
2023-05-23T17:01:57.058Z,67.00
2023-05-23T17:04:24.072Z,67.20
2023-05-23T17:06:50.821Z,67.00
2023-05-23T17:09:18.184Z,67.00
2023-05-23T17:11:45.064Z,67.00
2023-05-23T17:14:11.892Z,67.90
2023-05-23T17:16:38.633Z,66.90
2023-05-23T17:19:05.649Z,67.10
2023-05-23T17:21:32.853Z,67.00
2023-05-23T17:23:59.473Z,67.60
2023-05-23T17:26:29.111Z,67.00
2023-05-23T17:28:55.837Z,67.00
2023-05-23T17:31:22.488Z,67.00
2023-05-23T17:33:49.125Z,66.80
2023-05-23T17:36:15.763Z,66.60
2023-05-23T17:38:42.371Z,66.60
2023-05-23T17:41:09.182Z,66.50
2023-05-23T17:43:35.871Z,66.60
2023-05-23T17:46:02.639Z,66.60
2023-05-23T17:48:45.588Z,66.40
2023-05-23T17:51:13.467Z,66.40
2023-05-23T17:53:41.397Z,66.20
2023-05-23T17:56:11.487Z,66.30
2023-05-23T17:58:39.248Z,66.50
2023-05-23T18:01:07.131Z,66.40
2023-05-23T18:03:34.356Z,66.50
2023-05-23T18:06:01.081Z,66.20
2023-05-23T18:08:27.716Z,66.30
2023-05-23T18:10:54.432Z,66.50
2023-05-23T18:13:21.400Z,65.90
2023-05-23T18:15:48.080Z,66.30
2023-05-23T18:18:15.486Z,66.20
2023-05-23T18:20:42.551Z,66.70
2023-05-23T18:23:09.453Z,66.20
2023-05-23T18:25:36.444Z,66.40
2023-05-23T18:28:03.118Z,66.50
2023-05-23T18:30:29.726Z,66.20
2023-05-23T18:32:56.566Z,66.00
2023-05-23T18:35:23.408Z,66.50
2023-05-23T18:37:50.135Z,66.40
2023-05-23T18:40:16.810Z,66.20
2023-05-23T18:42:43.424Z,66.10
2023-05-23T18:45:10.415Z,65.90
2023-05-23T18:47:37.221Z,66.00
2023-05-23T18:50:03.953Z,66.00
2023-05-23T18:52:33.456Z,65.90
2023-05-23T18:55:00.125Z,65.80
2023-05-23T18:57:26.851Z,65.80
2023-05-23T18:59:53.451Z,65.70
2023-05-23T19:02:20.201Z,65.80
2023-05-23T19:04:46.923Z,65.70
2023-05-23T19:07:13.630Z,65.60
2023-05-23T19:09:41.337Z,65.70
2023-05-23T19:12:08.020Z,65.70
2023-05-23T19:14:34.613Z,65.50
2023-05-23T19:17:05.634Z,65.60
2023-05-23T19:19:36.493Z,65.20
2023-05-23T19:22:03.347Z,65.00
2023-05-23T19:24:30.050Z,64.60
2023-05-23T19:26:57.123Z,64.40
2023-05-23T19:29:23.708Z,64.20
2023-05-23T19:31:50.338Z,64.20
2023-05-23T19:34:16.971Z,63.90
2023-05-23T19:36:44.121Z,63.90
2023-05-23T19:39:12.436Z,63.90
2023-05-23T19:41:40.035Z,64.00
2023-05-23T19:44:06.631Z,64.00
2023-05-23T19:46:33.370Z,64.20
2023-05-23T19:49:00.931Z,64.10
2023-05-23T19:51:27.610Z,64.10
2023-05-23T19:53:54.628Z,64.20
2023-05-23T19:56:25.237Z,64.30
2023-05-23T19:58:52.038Z,64.30
2023-05-23T20:01:18.738Z,64.30
2023-05-23T20:03:45.397Z,64.50
2023-05-23T20:06:12.608Z,64.50
2023-05-23T20:08:39.362Z,64.50
2023-05-23T20:11:06.012Z,64.40
2023-05-23T20:13:32.617Z,64.70
2023-05-23T20:15:59.339Z,64.70
2023-05-23T20:18:25.991Z,64.50
2023-05-23T20:20:53.178Z,64.70
2023-05-23T20:23:19.907Z,64.80
2023-05-23T20:25:46.523Z,64.70
2023-05-23T20:28:13.215Z,64.80
2023-05-23T20:30:39.878Z,64.60
2023-05-23T20:33:06.647Z,64.70
2023-05-23T20:35:33.308Z,64.70
2023-05-23T20:37:59.983Z,64.70
2023-05-23T20:40:29.668Z,64.30
2023-05-23T20:42:58.375Z,64.40
2023-05-23T20:45:27.005Z,64.50
2023-05-23T20:47:53.746Z,64.50
2023-05-23T20:50:22.473Z,64.20
2023-05-23T20:52:49.127Z,64.40
2023-05-23T20:55:15.742Z,64.30
2023-05-23T20:57:42.534Z,64.60
2023-05-23T21:00:13.059Z,64.60
2023-05-23T21:02:40.866Z,64.40
2023-05-23T21:05:08.343Z,64.30
2023-05-23T21:07:35.161Z,64.30
2023-05-23T21:10:02.124Z,64.20
2023-05-23T21:12:28.957Z,64.20
2023-05-23T21:14:58.609Z,64.20
2023-05-23T21:17:25.657Z,64.10
2023-05-23T21:19:52.319Z,64.30
2023-05-23T21:22:18.943Z,64.20
2023-05-23T21:24:45.887Z,64.20
2023-05-23T21:27:12.641Z,64.20
2023-05-23T21:29:39.238Z,64.00
2023-05-23T21:32:05.977Z,64.10
2023-05-23T21:34:32.604Z,64.00
2023-05-23T21:36:59.217Z,64.00
2023-05-23T21:39:28.837Z,63.80
2023-05-23T21:41:59.843Z,63.90
2023-05-23T21:44:26.458Z,63.90
2023-05-23T21:46:53.206Z,64.10
2023-05-23T21:49:19.949Z,63.70
2023-05-23T21:51:46.563Z,63.70
2023-05-23T21:54:13.261Z,63.90
2023-05-23T21:56:39.912Z,63.60
2023-05-23T21:59:06.534Z,63.60
2023-05-23T22:01:33.204Z,63.40
2023-05-23T22:04:00.064Z,63.40
2023-05-23T22:06:26.740Z,63.30
2023-05-23T22:08:53.377Z,63.10
2023-05-23T22:11:20.020Z,63.10
2023-05-23T22:13:46.650Z,63.10
2023-05-23T22:16:13.384Z,63.30
2023-05-23T22:18:51.488Z,63.30
2023-05-23T22:21:18.543Z,63.00
2023-05-23T22:23:45.362Z,62.80
2023-05-23T22:26:12.720Z,62.90
2023-05-23T22:28:39.529Z,63.30
2023-05-23T22:31:06.600Z,62.70
2023-05-23T22:33:33.361Z,62.70
2023-05-23T22:36:00.056Z,62.70
2023-05-23T22:38:26.838Z,63.10
2023-05-23T22:40:53.464Z,62.60
2023-05-23T22:43:21.655Z,62.70
2023-05-23T22:45:50.080Z,62.50
2023-05-23T22:48:17.980Z,62.60
2023-05-23T22:50:44.882Z,62.70
2023-05-23T22:53:12.822Z,62.50
2023-05-23T22:55:39.745Z,62.70
2023-05-23T22:58:08.835Z,62.60
2023-05-23T23:00:35.859Z,62.50
2023-05-23T23:03:02.612Z,62.20
2023-05-23T23:05:29.489Z,62.50
2023-05-23T23:07:56.186Z,62.10
2023-05-23T23:10:22.788Z,62.10
2023-05-23T23:12:49.413Z,62.30
2023-05-23T23:15:16.116Z,62.10
2023-05-23T23:17:42.787Z,62.70
2023-05-23T23:20:10.254Z,61.90
2023-05-23T23:22:36.889Z,62.10
2023-05-23T23:25:04.538Z,61.80
2023-05-23T23:27:32.234Z,62.20
2023-05-23T23:29:59.049Z,61.70
2023-05-23T23:32:26.331Z,61.50
2023-05-23T23:34:53.292Z,61.80
2023-05-23T23:37:19.913Z,61.70
2023-05-23T23:39:46.560Z,61.30
2023-05-23T23:42:13.239Z,61.40
2023-05-23T23:44:39.844Z,61.50
2023-05-23T23:47:06.489Z,61.30
2023-05-23T23:49:33.089Z,61.60
2023-05-23T23:51:59.806Z,61.50
2023-05-23T23:54:26.441Z,61.50
2023-05-23T23:56:53.072Z,61.60
2023-05-23T23:59:20.921Z,61.50
